sensor_id;sensor_type;location;lat;lon;timestamp;temperature;humidity
37204;DHT22;23098;48.054;10.636;2022-09-27T00:01:47;10.90;99.90
37204;DHT22;23098;48.054;10.636;2022-09-27T00:04:12;10.80;99.90
37204;DHT22;23098;48.054;10.636;2022-09-27T00:06:38;10.80;99.90
37204;DHT22;23098;48.054;10.636;2022-09-27T00:09:03;10.80;99.90
37204;DHT22;23098;48.054;10.636;2022-09-27T00:11:34;10.80;99.90
37204;DHT22;23098;48.054;10.636;2022-09-27T00:14:00;10.80;99.90
37204;DHT22;23098;48.054;10.636;2022-09-27T00:16:28;10.80;99.90
37204;DHT22;23098;48.054;10.636;2022-09-27T00:19:03;10.70;99.90
37204;DHT22;23098;48.054;10.636;2022-09-27T00:21:29;10.60;99.90
37204;DHT22;23098;48.054;10.636;2022-09-27T00:23:55;10.60;99.90
37204;DHT22;23098;48.054;10.636;2022-09-27T00:26:21;10.60;99.90
37204;DHT22;23098;48.054;10.636;2022-09-27T00:28:47;10.60;99.90
37204;DHT22;23098;48.054;10.636;2022-09-27T00:31:18;10.50;99.90
37204;DHT22;23098;48.054;10.636;2022-09-27T00:33:51;10.50;99.90
37204;DHT22;23098;48.054;10.636;2022-09-27T00:36:18;10.50;99.90
37204;DHT22;23098;48.054;10.636;2022-09-27T00:38:44;10.50;99.90
37204;DHT22;23098;48.054;10.636;2022-09-27T00:41:20;10.50;99.90
37204;DHT22;23098;48.054;10.636;2022-09-27T00:43:52;10.60;99.90
37204;DHT22;23098;48.054;10.636;2022-09-27T00:46:25;10.50;99.90
37204;DHT22;23098;48.054;10.636;2022-09-27T00:49:44;10.50;99.90
37204;DHT22;23098;48.054;10.636;2022-09-27T00:51:47;10.50;99.90
37204;DHT22;23098;48.054;10.636;2022-09-27T00:54:16;10.40;99.90
37204;DHT22;23098;48.054;10.636;2022-09-27T00:56:44;10.30;99.90
37204;DHT22;23098;48.054;10.636;2022-09-27T00:59:23;10.30;99.90
37204;DHT22;23098;48.054;10.636;2022-09-27T01:01:50;10.20;99.90
37204;DHT22;23098;48.054;10.636;2022-09-27T01:04:19;10.20;99.90
37204;DHT22;23098;48.054;10.636;2022-09-27T01:06:47;10.20;99.90
37204;DHT22;23098;48.054;10.636;2022-09-27T01:09:13;10.20;99.90
37204;DHT22;23098;48.054;10.636;2022-09-27T01:12:05;10.10;99.90
37204;DHT22;23098;48.054;10.636;2022-09-27T01:14:44;10.10;99.90
37204;DHT22;23098;48.054;10.636;2022-09-27T01:34:03;9.50;99.90
37204;DHT22;23098;48.054;10.636;2022-09-27T01:39:29;9.50;99.90
37204;DHT22;23098;48.054;10.636;2022-09-27T01:47:21;9.50;99.90
37204;DHT22;23098;48.054;10.636;2022-09-27T01:50:13;9.50;99.90
37204;DHT22;23098;48.054;10.636;2022-09-27T01:52:41;9.50;99.90
37204;DHT22;23098;48.054;10.636;2022-09-27T01:55:12;9.40;99.90
37204;DHT22;23098;48.054;10.636;2022-09-27T01:57:43;9.40;99.90
37204;DHT22;23098;48.054;10.636;2022-09-27T02:00:10;9.40;99.90
37204;DHT22;23098;48.054;10.636;2022-09-27T02:03:26;9.50;99.90
37204;DHT22;23098;48.054;10.636;2022-09-27T02:05:42;9.50;99.90
37204;DHT22;23098;48.054;10.636;2022-09-27T02:08:42;9.50;99.90
37204;DHT22;23098;48.054;10.636;2022-09-27T02:11:11;9.50;99.90
37204;DHT22;23098;48.054;10.636;2022-09-27T02:16:48;9.50;99.90
37204;DHT22;23098;48.054;10.636;2022-09-27T02:19:33;9.50;99.90
37204;DHT22;23098;48.054;10.636;2022-09-27T02:22:28;9.50;99.90
37204;DHT22;23098;48.054;10.636;2022-09-27T02:28:30;9.40;99.90
37204;DHT22;23098;48.054;10.636;2022-09-27T02:30:30;9.40;99.90
37204;DHT22;23098;48.054;10.636;2022-09-27T02:32:56;9.40;99.90
37204;DHT22;23098;48.054;10.636;2022-09-27T02:35:25;9.40;99.90
37204;DHT22;23098;48.054;10.636;2022-09-27T02:37:52;9.50;99.90
37204;DHT22;23098;48.054;10.636;2022-09-27T02:40:19;9.40;99.90
37204;DHT22;23098;48.054;10.636;2022-09-27T02:42:45;9.40;99.90
37204;DHT22;23098;48.054;10.636;2022-09-27T02:45:11;9.50;99.90
37204;DHT22;23098;48.054;10.636;2022-09-27T02:48:00;9.50;99.90
37204;DHT22;23098;48.054;10.636;2022-09-27T02:50:43;9.50;99.90
37204;DHT22;23098;48.054;10.636;2022-09-27T03:04:24;9.50;99.90
37204;DHT22;23098;48.054;10.636;2022-09-27T03:06:52;9.60;99.90
37204;DHT22;23098;48.054;10.636;2022-09-27T03:09:21;9.60;99.90
37204;DHT22;23098;48.054;10.636;2022-09-27T03:11:46;9.50;99.90
37204;DHT22;23098;48.054;10.636;2022-09-27T03:14:13;9.50;99.90
37204;DHT22;23098;48.054;10.636;2022-09-27T03:16:38;9.60;99.90
37204;DHT22;23098;48.054;10.636;2022-09-27T03:19:04;9.60;99.90
37204;DHT22;23098;48.054;10.636;2022-09-27T03:21:30;9.70;99.90
37204;DHT22;23098;48.054;10.636;2022-09-27T03:23:55;9.70;99.90
37204;DHT22;23098;48.054;10.636;2022-09-27T03:26:21;9.80;99.90
37204;DHT22;23098;48.054;10.636;2022-09-27T03:28:46;9.80;99.90
37204;DHT22;23098;48.054;10.636;2022-09-27T03:31:12;9.70;99.90
37204;DHT22;23098;48.054;10.636;2022-09-27T03:33:39;9.70;99.90
37204;DHT22;23098;48.054;10.636;2022-09-27T03:36:05;9.70;99.90
37204;DHT22;23098;48.054;10.636;2022-09-27T03:38:31;9.80;99.90
37204;DHT22;23098;48.054;10.636;2022-09-27T03:40:56;9.70;99.90
37204;DHT22;23098;48.054;10.636;2022-09-27T03:43:23;9.70;99.90
37204;DHT22;23098;48.054;10.636;2022-09-27T03:45:49;9.70;99.90
37204;DHT22;23098;48.054;10.636;2022-09-27T03:48:14;9.60;99.90
37204;DHT22;23098;48.054;10.636;2022-09-27T03:50:40;9.60;99.90
37204;DHT22;23098;48.054;10.636;2022-09-27T03:53:05;9.50;99.90
37204;DHT22;23098;48.054;10.636;2022-09-27T03:55:31;9.50;99.90
37204;DHT22;23098;48.054;10.636;2022-09-27T03:57:57;9.50;99.90
37204;DHT22;23098;48.054;10.636;2022-09-27T04:00:23;9.50;99.90
37204;DHT22;23098;48.054;10.636;2022-09-27T04:02:49;9.40;99.90
37204;DHT22;23098;48.054;10.636;2022-09-27T04:05:15;9.40;99.90
37204;DHT22;23098;48.054;10.636;2022-09-27T04:07:45;9.40;99.90
37204;DHT22;23098;48.054;10.636;2022-09-27T04:10:11;9.40;99.90
37204;DHT22;23098;48.054;10.636;2022-09-27T04:12:39;9.40;99.90
37204;DHT22;23098;48.054;10.636;2022-09-27T04:15:05;9.40;99.90
37204;DHT22;23098;48.054;10.636;2022-09-27T04:17:32;9.40;99.90
37204;DHT22;23098;48.054;10.636;2022-09-27T04:19:57;9.40;99.90
37204;DHT22;23098;48.054;10.636;2022-09-27T04:22:23;9.40;99.90
37204;DHT22;23098;48.054;10.636;2022-09-27T04:24:48;9.40;99.90
37204;DHT22;23098;48.054;10.636;2022-09-27T04:27:14;9.30;99.90
37204;DHT22;23098;48.054;10.636;2022-09-27T04:29:40;9.30;99.90
37204;DHT22;23098;48.054;10.636;2022-09-27T04:32:10;9.20;99.90
37204;DHT22;23098;48.054;10.636;2022-09-27T04:34:35;9.30;99.90
37204;DHT22;23098;48.054;10.636;2022-09-27T04:37:19;9.20;99.90
37204;DHT22;23098;48.054;10.636;2022-09-27T04:39:45;9.20;99.90
37204;DHT22;23098;48.054;10.636;2022-09-27T04:42:10;9.10;99.90
37204;DHT22;23098;48.054;10.636;2022-09-27T04:44:36;9.00;99.90
37204;DHT22;23098;48.054;10.636;2022-09-27T04:47:02;9.00;99.90
37204;DHT22;23098;48.054;10.636;2022-09-27T04:49:35;9.00;99.90
37204;DHT22;23098;48.054;10.636;2022-09-27T04:52:04;8.90;99.90
37204;DHT22;23098;48.054;10.636;2022-09-27T04:54:30;8.90;99.90
37204;DHT22;23098;48.054;10.636;2022-09-27T04:56:56;9.00;99.90
37204;DHT22;23098;48.054;10.636;2022-09-27T04:59:21;9.00;99.90
37204;DHT22;23098;48.054;10.636;2022-09-27T05:01:47;9.00;99.90
37204;DHT22;23098;48.054;10.636;2022-09-27T05:04:14;9.10;99.90
37204;DHT22;23098;48.054;10.636;2022-09-27T05:06:41;9.10;99.90
37204;DHT22;23098;48.054;10.636;2022-09-27T05:09:06;9.10;99.90
37204;DHT22;23098;48.054;10.636;2022-09-27T05:11:32;9.10;99.90
37204;DHT22;23098;48.054;10.636;2022-09-27T05:13:59;9.10;99.90
37204;DHT22;23098;48.054;10.636;2022-09-27T05:16:24;9.10;99.90
37204;DHT22;23098;48.054;10.636;2022-09-27T05:18:50;9.00;99.90
37204;DHT22;23098;48.054;10.636;2022-09-27T05:21:15;9.00;99.90
37204;DHT22;23098;48.054;10.636;2022-09-27T05:23:41;9.00;99.90
37204;DHT22;23098;48.054;10.636;2022-09-27T05:26:07;8.90;99.90
37204;DHT22;23098;48.054;10.636;2022-09-27T05:28:32;8.80;99.90
37204;DHT22;23098;48.054;10.636;2022-09-27T05:31:02;8.80;99.90
37204;DHT22;23098;48.054;10.636;2022-09-27T05:33:28;8.80;99.90
37204;DHT22;23098;48.054;10.636;2022-09-27T05:35:55;8.80;99.90
37204;DHT22;23098;48.054;10.636;2022-09-27T05:38:21;8.90;99.90
37204;DHT22;23098;48.054;10.636;2022-09-27T05:40:46;9.00;99.90
37204;DHT22;23098;48.054;10.636;2022-09-27T05:43:15;9.10;99.90
37204;DHT22;23098;48.054;10.636;2022-09-27T05:45:40;9.10;99.90
37204;DHT22;23098;48.054;10.636;2022-09-27T05:48:09;9.20;99.90
37204;DHT22;23098;48.054;10.636;2022-09-27T05:50:37;9.20;99.90
37204;DHT22;23098;48.054;10.636;2022-09-27T05:53:03;9.20;99.90
37204;DHT22;23098;48.054;10.636;2022-09-27T05:55:28;9.10;99.90
37204;DHT22;23098;48.054;10.636;2022-09-27T06:00:30;9.30;99.90
37204;DHT22;23098;48.054;10.636;2022-09-27T06:03:04;9.40;99.90
37204;DHT22;23098;48.054;10.636;2022-09-27T06:05:34;9.50;99.90
37204;DHT22;23098;48.054;10.636;2022-09-27T06:08:03;9.50;99.90
37204;DHT22;23098;48.054;10.636;2022-09-27T06:24:40;9.40;99.90
37204;DHT22;23098;48.054;10.636;2022-09-27T06:45:47;9.20;99.90
37204;DHT22;23098;48.054;10.636;2022-09-27T06:48:15;9.30;99.90
37204;DHT22;23098;48.054;10.636;2022-09-27T06:50:43;9.40;99.90
37204;DHT22;23098;48.054;10.636;2022-09-27T06:53:10;9.40;99.90
37204;DHT22;23098;48.054;10.636;2022-09-27T06:55:36;9.40;99.90
37204;DHT22;23098;48.054;10.636;2022-09-27T06:58:03;9.30;99.90
37204;DHT22;23098;48.054;10.636;2022-09-27T07:00:51;9.20;99.90
37204;DHT22;23098;48.054;10.636;2022-09-27T07:03:21;9.10;99.90
37204;DHT22;23098;48.054;10.636;2022-09-27T07:08:22;9.30;99.90
37204;DHT22;23098;48.054;10.636;2022-09-27T07:10:51;9.60;99.90
37204;DHT22;23098;48.054;10.636;2022-09-27T07:13:17;9.70;99.90
37204;DHT22;23098;48.054;10.636;2022-09-27T07:15:43;9.80;99.90
37204;DHT22;23098;48.054;10.636;2022-09-27T07:18:09;9.70;99.90
37204;DHT22;23098;48.054;10.636;2022-09-27T07:20:35;9.70;99.90
37204;DHT22;23098;48.054;10.636;2022-09-27T07:23:03;9.90;99.90
37204;DHT22;23098;48.054;10.636;2022-09-27T07:25:29;10.00;99.90
37204;DHT22;23098;48.054;10.636;2022-09-27T07:28:01;9.90;99.90
37204;DHT22;23098;48.054;10.636;2022-09-27T07:30:28;9.90;99.90
37204;DHT22;23098;48.054;10.636;2022-09-27T07:33:00;9.80;99.90
37204;DHT22;23098;48.054;10.636;2022-09-27T07:35:26;9.80;99.90
37204;DHT22;23098;48.054;10.636;2022-09-27T07:37:54;9.70;99.90
37204;DHT22;23098;48.054;10.636;2022-09-27T07:40:19;9.70;99.90
37204;DHT22;23098;48.054;10.636;2022-09-27T07:42:45;9.50;99.90
37204;DHT22;23098;48.054;10.636;2022-09-27T07:45:11;9.40;99.90
37204;DHT22;23098;48.054;10.636;2022-09-27T07:47:38;9.10;99.90
37204;DHT22;23098;48.054;10.636;2022-09-27T07:50:05;8.90;99.90
37204;DHT22;23098;48.054;10.636;2022-09-27T07:55:13;8.60;99.90
37204;DHT22;23098;48.054;10.636;2022-09-27T07:57:39;8.60;99.90
37204;DHT22;23098;48.054;10.636;2022-09-27T08:00:06;8.50;99.90
37204;DHT22;23098;48.054;10.636;2022-09-27T08:02:32;8.50;99.90
37204;DHT22;23098;48.054;10.636;2022-09-27T08:04:58;8.40;99.90
37204;DHT22;23098;48.054;10.636;2022-09-27T08:07:24;8.40;99.90
37204;DHT22;23098;48.054;10.636;2022-09-27T08:09:50;8.50;99.90
37204;DHT22;23098;48.054;10.636;2022-09-27T08:12:16;8.60;99.90
37204;DHT22;23098;48.054;10.636;2022-09-27T08:14:41;8.70;99.90
37204;DHT22;23098;48.054;10.636;2022-09-27T08:17:11;8.70;99.90
37204;DHT22;23098;48.054;10.636;2022-09-27T08:19:36;8.70;99.90
37204;DHT22;23098;48.054;10.636;2022-09-27T08:22:02;8.70;99.90
37204;DHT22;23098;48.054;10.636;2022-09-27T08:24:27;8.60;99.90
37204;DHT22;23098;48.054;10.636;2022-09-27T08:26:53;8.70;99.90
37204;DHT22;23098;48.054;10.636;2022-09-27T08:29:19;9.10;99.90
37204;DHT22;23098;48.054;10.636;2022-09-27T08:31:44;9.20;99.90
37204;DHT22;23098;48.054;10.636;2022-09-27T08:34:10;9.30;99.90
37204;DHT22;23098;48.054;10.636;2022-09-27T08:36:36;9.20;99.90
37204;DHT22;23098;48.054;10.636;2022-09-27T08:39:02;9.20;99.90
37204;DHT22;23098;48.054;10.636;2022-09-27T08:41:37;9.30;99.90
37204;DHT22;23098;48.054;10.636;2022-09-27T08:44:19;9.50;99.90
37204;DHT22;23098;48.054;10.636;2022-09-27T08:49:56;9.70;99.90
37204;DHT22;23098;48.054;10.636;2022-09-27T08:55:19;10.50;99.90
37204;DHT22;23098;48.054;10.636;2022-09-27T08:57:52;10.40;99.90
37204;DHT22;23098;48.054;10.636;2022-09-27T09:00:19;10.30;99.90
37204;DHT22;23098;48.054;10.636;2022-09-27T09:02:44;10.20;99.90
37204;DHT22;23098;48.054;10.636;2022-09-27T09:05:15;10.10;99.90
37204;DHT22;23098;48.054;10.636;2022-09-27T09:07:56;9.90;99.90
37204;DHT22;23098;48.054;10.636;2022-09-27T09:14:17;9.60;99.90
37204;DHT22;23098;48.054;10.636;2022-09-27T09:20:09;9.60;99.90
37204;DHT22;23098;48.054;10.636;2022-09-27T09:23:41;9.60;99.90
37204;DHT22;23098;48.054;10.636;2022-09-27T09:25:56;10.00;99.90
37204;DHT22;23098;48.054;10.636;2022-09-27T09:28:51;10.90;99.90
37204;DHT22;23098;48.054;10.636;2022-09-27T09:31:41;11.20;99.90
37204;DHT22;23098;48.054;10.636;2022-09-27T09:34:30;10.80;99.90
37204;DHT22;23098;48.054;10.636;2022-09-27T09:37:04;10.60;99.90
37204;DHT22;23098;48.054;10.636;2022-09-27T09:39:50;10.40;99.90
37204;DHT22;23098;48.054;10.636;2022-09-27T09:42:28;10.10;99.90
37204;DHT22;23098;48.054;10.636;2022-09-27T09:45:02;9.90;99.90
37204;DHT22;23098;48.054;10.636;2022-09-27T09:47:37;9.80;99.90
37204;DHT22;23098;48.054;10.636;2022-09-27T09:50:19;9.80;99.90
37204;DHT22;23098;48.054;10.636;2022-09-27T09:52:50;9.90;99.90
37204;DHT22;23098;48.054;10.636;2022-09-27T09:55:25;10.00;99.90
37204;DHT22;23098;48.054;10.636;2022-09-27T10:00:37;9.80;99.90
37204;DHT22;23098;48.054;10.636;2022-09-27T10:03:03;9.90;99.90
37204;DHT22;23098;48.054;10.636;2022-09-27T10:05:29;9.80;99.90
37204;DHT22;23098;48.054;10.636;2022-09-27T10:07:58;9.80;99.90
37204;DHT22;23098;48.054;10.636;2022-09-27T10:10:25;10.00;99.90
37204;DHT22;23098;48.054;10.636;2022-09-27T10:12:51;10.20;99.90
37204;DHT22;23098;48.054;10.636;2022-09-27T10:15:19;10.20;99.90
37204;DHT22;23098;48.054;10.636;2022-09-27T10:17:48;10.10;99.90
37204;DHT22;23098;48.054;10.636;2022-09-27T10:25:57;10.60;99.90
37204;DHT22;23098;48.054;10.636;2022-09-27T10:28:34;11.00;99.90
37204;DHT22;23098;48.054;10.636;2022-09-27T10:31:10;11.30;99.90
37204;DHT22;23098;48.054;10.636;2022-09-27T10:33:49;11.40;99.90
37204;DHT22;23098;48.054;10.636;2022-09-27T10:36:24;11.50;99.90
37204;DHT22;23098;48.054;10.636;2022-09-27T10:38:53;11.40;99.90
37204;DHT22;23098;48.054;10.636;2022-09-27T10:43:49;10.80;99.90
37204;DHT22;23098;48.054;10.636;2022-09-27T10:49:48;11.30;99.90
37204;DHT22;23098;48.054;10.636;2022-09-27T10:52:18;11.90;99.90
37204;DHT22;23098;48.054;10.636;2022-09-27T10:55:04;11.80;99.90
37204;DHT22;23098;48.054;10.636;2022-09-27T10:57:31;12.50;99.90
37204;DHT22;23098;48.054;10.636;2022-09-27T10:59:59;12.10;99.90
37204;DHT22;23098;48.054;10.636;2022-09-27T11:02:33;12.00;99.90
37204;DHT22;23098;48.054;10.636;2022-09-27T11:05:12;11.50;99.90
37204;DHT22;23098;48.054;10.636;2022-09-27T11:08:40;11.50;99.90
37204;DHT22;23098;48.054;10.636;2022-09-27T11:10:42;12.10;99.90
37204;DHT22;23098;48.054;10.636;2022-09-27T11:13:15;11.60;99.90
37204;DHT22;23098;48.054;10.636;2022-09-27T11:18:49;11.70;99.90
37204;DHT22;23098;48.054;10.636;2022-09-27T11:21:28;11.90;99.90
37204;DHT22;23098;48.054;10.636;2022-09-27T11:24:09;12.00;99.90
37204;DHT22;23098;48.054;10.636;2022-09-27T11:29:42;12.20;99.90
37204;DHT22;23098;48.054;10.636;2022-09-27T11:32:53;12.40;99.90
37204;DHT22;23098;48.054;10.636;2022-09-27T11:35:25;12.50;99.90
37204;DHT22;23098;48.054;10.636;2022-09-27T11:38:14;12.20;99.90
37204;DHT22;23098;48.054;10.636;2022-09-27T11:46:34;11.60;99.90
37204;DHT22;23098;48.054;10.636;2022-09-27T11:54:38;11.50;99.90
37204;DHT22;23098;48.054;10.636;2022-09-27T11:57:26;11.30;99.90
37204;DHT22;23098;48.054;10.636;2022-09-27T12:09:05;11.40;99.90
37204;DHT22;23098;48.054;10.636;2022-09-27T12:13:41;10.90;99.90
37204;DHT22;23098;48.054;10.636;2022-09-27T12:16:09;10.90;99.90
37204;DHT22;23098;48.054;10.636;2022-09-27T12:18:38;11.00;99.90
37204;DHT22;23098;48.054;10.636;2022-09-27T12:21:05;11.10;99.90
37204;DHT22;23098;48.054;10.636;2022-09-27T12:23:42;10.90;99.90
37204;DHT22;23098;48.054;10.636;2022-09-27T12:26:24;11.00;99.90
37204;DHT22;23098;48.054;10.636;2022-09-27T12:29:24;11.00;99.90
37204;DHT22;23098;48.054;10.636;2022-09-27T12:32:12;11.20;99.90
37204;DHT22;23098;48.054;10.636;2022-09-27T12:35:02;11.00;99.90
37204;DHT22;23098;48.054;10.636;2022-09-27T12:37:47;10.90;99.90
37204;DHT22;23098;48.054;10.636;2022-09-27T12:40:22;11.00;99.90
37204;DHT22;23098;48.054;10.636;2022-09-27T12:43:11;10.70;99.90
37204;DHT22;23098;48.054;10.636;2022-09-27T12:46:11;10.60;99.90
37204;DHT22;23098;48.054;10.636;2022-09-27T12:49:09;10.50;99.90
37204;DHT22;23098;48.054;10.636;2022-09-27T12:55:31;10.60;99.90
37204;DHT22;23098;48.054;10.636;2022-09-27T13:01:13;10.70;99.90
37204;DHT22;23098;48.054;10.636;2022-09-27T13:04:27;10.70;99.90
37204;DHT22;23098;48.054;10.636;2022-09-27T13:07:16;11.20;99.90
37204;DHT22;23098;48.054;10.636;2022-09-27T13:10:00;11.70;99.90
37204;DHT22;23098;48.054;10.636;2022-09-27T13:12:29;11.50;99.90
37204;DHT22;23098;48.054;10.636;2022-09-27T13:15:18;11.20;99.90
37204;DHT22;23098;48.054;10.636;2022-09-27T13:17:51;10.90;99.90
37204;DHT22;23098;48.054;10.636;2022-09-27T13:22:55;10.80;99.90
37204;DHT22;23098;48.054;10.636;2022-09-27T13:31:06;12.30;99.90
37204;DHT22;23098;48.054;10.636;2022-09-27T13:33:49;12.00;99.90
37204;DHT22;23098;48.054;10.636;2022-09-27T13:41:27;11.40;99.90
37204;DHT22;23098;48.054;10.636;2022-09-27T13:44:10;11.50;99.90
37204;DHT22;23098;48.054;10.636;2022-09-27T13:46:49;11.20;99.90
37204;DHT22;23098;48.054;10.636;2022-09-27T13:49:27;10.90;99.90
37204;DHT22;23098;48.054;10.636;2022-09-27T13:52:00;10.70;99.90
37204;DHT22;23098;48.054;10.636;2022-09-27T13:54:48;10.70;99.90
37204;DHT22;23098;48.054;10.636;2022-09-27T13:57:38;10.70;99.90
37204;DHT22;23098;48.054;10.636;2022-09-27T14:00:08;10.70;99.90
37204;DHT22;23098;48.054;10.636;2022-09-27T14:02:43;10.60;99.90
37204;DHT22;23098;48.054;10.636;2022-09-27T14:05:12;10.60;99.90
37204;DHT22;23098;48.054;10.636;2022-09-27T14:07:42;10.60;99.90
37204;DHT22;23098;48.054;10.636;2022-09-27T14:10:13;10.60;99.90
37204;DHT22;23098;48.054;10.636;2022-09-27T14:12:41;10.60;99.90
37204;DHT22;23098;48.054;10.636;2022-09-27T14:15:17;10.60;99.90
37204;DHT22;23098;48.054;10.636;2022-09-27T14:17:43;10.60;99.90
37204;DHT22;23098;48.054;10.636;2022-09-27T14:22:54;10.50;99.90
37204;DHT22;23098;48.054;10.636;2022-09-27T14:25:19;10.60;99.90
37204;DHT22;23098;48.054;10.636;2022-09-27T14:27:45;10.70;99.90
37204;DHT22;23098;48.054;10.636;2022-09-27T14:30:16;10.80;99.90
37204;DHT22;23098;48.054;10.636;2022-09-27T14:32:53;10.90;99.90
37204;DHT22;23098;48.054;10.636;2022-09-27T14:35:30;11.10;99.90
37204;DHT22;23098;48.054;10.636;2022-09-27T14:38:18;11.00;99.90
37204;DHT22;23098;48.054;10.636;2022-09-27T14:41:04;11.00;99.90
37204;DHT22;23098;48.054;10.636;2022-09-27T14:43:33;10.90;99.90
37204;DHT22;23098;48.054;10.636;2022-09-27T14:46:04;11.00;99.90
37204;DHT22;23098;48.054;10.636;2022-09-27T14:48:35;11.40;99.90
37204;DHT22;23098;48.054;10.636;2022-09-27T14:51:28;11.40;99.90
37204;DHT22;23098;48.054;10.636;2022-09-27T14:53:56;11.30;99.90
37204;DHT22;23098;48.054;10.636;2022-09-27T14:56:29;11.40;99.90
37204;DHT22;23098;48.054;10.636;2022-09-27T14:59:09;11.70;99.90
37204;DHT22;23098;48.054;10.636;2022-09-27T15:01:38;11.60;99.90
37204;DHT22;23098;48.054;10.636;2022-09-27T15:04:12;11.40;99.90
37204;DHT22;23098;48.054;10.636;2022-09-27T15:06:39;11.20;99.90
37204;DHT22;23098;48.054;10.636;2022-09-27T15:09:06;11.10;99.90
37204;DHT22;23098;48.054;10.636;2022-09-27T15:11:34;11.00;99.90
37204;DHT22;23098;48.054;10.636;2022-09-27T15:14:01;10.90;99.90
37204;DHT22;23098;48.054;10.636;2022-09-27T15:16:29;10.90;99.90
37204;DHT22;23098;48.054;10.636;2022-09-27T15:18:59;10.80;99.90
37204;DHT22;23098;48.054;10.636;2022-09-27T15:21:30;10.70;99.90
37204;DHT22;23098;48.054;10.636;2022-09-27T15:23:55;10.80;99.90
37204;DHT22;23098;48.054;10.636;2022-09-27T15:28:57;10.80;99.90
37204;DHT22;23098;48.054;10.636;2022-09-27T15:31:31;10.80;99.90
37204;DHT22;23098;48.054;10.636;2022-09-27T15:33:57;10.70;99.90
37204;DHT22;23098;48.054;10.636;2022-09-27T15:36:52;10.80;99.90
37204;DHT22;23098;48.054;10.636;2022-09-27T15:39:27;10.80;99.90
37204;DHT22;23098;48.054;10.636;2022-09-27T15:52:50;10.40;99.90
37204;DHT22;23098;48.054;10.636;2022-09-27T15:55:21;10.10;99.90
37204;DHT22;23098;48.054;10.636;2022-09-27T15:57:54;9.60;99.90
37204;DHT22;23098;48.054;10.636;2022-09-27T16:00:23;9.30;99.90
37204;DHT22;23098;48.054;10.636;2022-09-27T16:02:49;9.20;99.90
37204;DHT22;23098;48.054;10.636;2022-09-27T16:05:14;9.10;99.90
37204;DHT22;23098;48.054;10.636;2022-09-27T16:07:40;9.00;99.90
37204;DHT22;23098;48.054;10.636;2022-09-27T16:10:13;9.00;99.90
37204;DHT22;23098;48.054;10.636;2022-09-27T16:12:39;9.00;99.90
37204;DHT22;23098;48.054;10.636;2022-09-27T16:15:06;9.00;99.90
37204;DHT22;23098;48.054;10.636;2022-09-27T16:17:31;8.90;99.90
37204;DHT22;23098;48.054;10.636;2022-09-27T16:19:57;8.90;99.90
37204;DHT22;23098;48.054;10.636;2022-09-27T16:22:23;8.90;99.90
37204;DHT22;23098;48.054;10.636;2022-09-27T16:24:48;8.90;99.90
37204;DHT22;23098;48.054;10.636;2022-09-27T16:27:22;8.90;99.90
37204;DHT22;23098;48.054;10.636;2022-09-27T16:29:48;8.90;99.90
37204;DHT22;23098;48.054;10.636;2022-09-27T16:32:14;8.90;99.90
37204;DHT22;23098;48.054;10.636;2022-09-27T16:34:39;8.80;99.90
37204;DHT22;23098;48.054;10.636;2022-09-27T16:37:05;8.80;99.90
37204;DHT22;23098;48.054;10.636;2022-09-27T16:39:31;8.90;99.90
37204;DHT22;23098;48.054;10.636;2022-09-27T16:41:57;8.90;99.90
37204;DHT22;23098;48.054;10.636;2022-09-27T16:44:24;8.90;99.90
37204;DHT22;23098;48.054;10.636;2022-09-27T16:46:49;8.90;99.90
37204;DHT22;23098;48.054;10.636;2022-09-27T16:49:15;8.80;99.90
37204;DHT22;23098;48.054;10.636;2022-09-27T16:51:59;8.80;99.90
37204;DHT22;23098;48.054;10.636;2022-09-27T16:54:25;8.90;99.90
37204;DHT22;23098;48.054;10.636;2022-09-27T16:56:53;8.90;99.90
37204;DHT22;23098;48.054;10.636;2022-09-27T16:59:19;8.80;99.90
37204;DHT22;23098;48.054;10.636;2022-09-27T17:01:45;8.80;99.90
37204;DHT22;23098;48.054;10.636;2022-09-27T17:04:11;8.80;99.90
37204;DHT22;23098;48.054;10.636;2022-09-27T17:06:38;8.70;99.90
37204;DHT22;23098;48.054;10.636;2022-09-27T17:09:04;8.60;99.90
37204;DHT22;23098;48.054;10.636;2022-09-27T17:11:30;8.50;99.90
37204;DHT22;23098;48.054;10.636;2022-09-27T17:13:56;8.40;99.90
37204;DHT22;23098;48.054;10.636;2022-09-27T17:16:23;8.30;99.90
37204;DHT22;23098;48.054;10.636;2022-09-27T17:18:49;8.20;99.90
37204;DHT22;23098;48.054;10.636;2022-09-27T17:21:15;8.20;99.90
37204;DHT22;23098;48.054;10.636;2022-09-27T17:23:40;8.10;99.90
37204;DHT22;23098;48.054;10.636;2022-09-27T17:26:13;8.10;99.90
37204;DHT22;23098;48.054;10.636;2022-09-27T17:28:39;8.10;99.90
37204;DHT22;23098;48.054;10.636;2022-09-27T17:31:07;8.10;99.90
37204;DHT22;23098;48.054;10.636;2022-09-27T17:33:36;8.10;99.90
37204;DHT22;23098;48.054;10.636;2022-09-27T17:36:06;8.00;99.90
37204;DHT22;23098;48.054;10.636;2022-09-27T17:38:33;8.00;99.90
37204;DHT22;23098;48.054;10.636;2022-09-27T17:40:59;7.90;99.90
37204;DHT22;23098;48.054;10.636;2022-09-27T17:43:26;7.90;99.90
37204;DHT22;23098;48.054;10.636;2022-09-27T17:45:51;8.00;99.90
37204;DHT22;23098;48.054;10.636;2022-09-27T17:48:17;8.10;99.90
37204;DHT22;23098;48.054;10.636;2022-09-27T17:51:01;8.20;99.90
37204;DHT22;23098;48.054;10.636;2022-09-27T17:53:28;8.30;99.90
37204;DHT22;23098;48.054;10.636;2022-09-27T17:55:59;8.30;99.90
37204;DHT22;23098;48.054;10.636;2022-09-27T17:58:25;8.30;99.90
37204;DHT22;23098;48.054;10.636;2022-09-27T18:00:51;8.30;99.90
37204;DHT22;23098;48.054;10.636;2022-09-27T18:03:16;8.30;99.90
37204;DHT22;23098;48.054;10.636;2022-09-27T18:05:42;8.30;99.90
37204;DHT22;23098;48.054;10.636;2022-09-27T18:08:08;8.40;99.90
37204;DHT22;23098;48.054;10.636;2022-09-27T18:10:33;8.40;99.90
37204;DHT22;23098;48.054;10.636;2022-09-27T18:12:59;8.40;99.90
37204;DHT22;23098;48.054;10.636;2022-09-27T18:15:25;8.40;99.90
37204;DHT22;23098;48.054;10.636;2022-09-27T18:17:50;8.40;99.90
37204;DHT22;23098;48.054;10.636;2022-09-27T18:20:16;8.40;99.90
37204;DHT22;23098;48.054;10.636;2022-09-27T18:22:42;8.40;99.90
37204;DHT22;23098;48.054;10.636;2022-09-27T18:25:08;8.40;99.90
37204;DHT22;23098;48.054;10.636;2022-09-27T18:27:33;8.30;99.90
37204;DHT22;23098;48.054;10.636;2022-09-27T18:30:06;8.30;99.90
37204;DHT22;23098;48.054;10.636;2022-09-27T18:32:33;8.30;99.90
37204;DHT22;23098;48.054;10.636;2022-09-27T18:34:59;8.30;99.90
37204;DHT22;23098;48.054;10.636;2022-09-27T18:37:24;8.30;99.90
37204;DHT22;23098;48.054;10.636;2022-09-27T18:39:51;8.40;99.90
37204;DHT22;23098;48.054;10.636;2022-09-27T18:42:16;8.30;99.90
37204;DHT22;23098;48.054;10.636;2022-09-27T18:44:42;8.30;99.90